sensor_id;sensor_type;location;lat;lon;timestamp;P1;durP1;ratioP1;P2;durP2;ratioP2
41946;SDS011;27638;42.184;24.848;2023-02-07T00:00:13;21.83;;;9.48;;
41946;SDS011;27638;42.184;24.848;2023-02-07T00:02:41;16.23;;;8.05;;
41946;SDS011;27638;42.184;24.848;2023-02-07T00:05:07;13.88;;;7.28;;
41946;SDS011;27638;42.184;24.848;2023-02-07T00:07:33;13.77;;;8.02;;
41946;SDS011;27638;42.184;24.848;2023-02-07T00:09:58;14.52;;;7.80;;
41946;SDS011;27638;42.184;24.848;2023-02-07T00:12:24;10.60;;;6.47;;
41946;SDS011;27638;42.184;24.848;2023-02-07T00:14:49;9.50;;;5.72;;
41946;SDS011;27638;42.184;24.848;2023-02-07T00:17:15;10.27;;;6.68;;
41946;SDS011;27638;42.184;24.848;2023-02-07T00:19:40;11.90;;;6.93;;
41946;SDS011;27638;42.184;24.848;2023-02-07T00:22:05;12.18;;;7.07;;
41946;SDS011;27638;42.184;24.848;2023-02-07T00:24:31;11.45;;;7.03;;
41946;SDS011;27638;42.184;24.848;2023-02-07T00:26:56;14.23;;;7.80;;
41946;SDS011;27638;42.184;24.848;2023-02-07T00:29:22;13.15;;;7.55;;
41946;SDS011;27638;42.184;24.848;2023-02-07T00:31:47;12.05;;;7.47;;
41946;SDS011;27638;42.184;24.848;2023-02-07T00:34:13;17.00;;;8.82;;
41946;SDS011;27638;42.184;24.848;2023-02-07T00:36:39;17.25;;;9.27;;
41946;SDS011;27638;42.184;24.848;2023-02-07T00:39:07;16.00;;;9.52;;
41946;SDS011;27638;42.184;24.848;2023-02-07T00:41:36;19.65;;;9.98;;
41946;SDS011;27638;42.184;24.848;2023-02-07T00:44:02;14.50;;;8.60;;
41946;SDS011;27638;42.184;24.848;2023-02-07T00:46:27;19.65;;;9.55;;
41946;SDS011;27638;42.184;24.848;2023-02-07T00:48:53;15.52;;;8.52;;
41946;SDS011;27638;42.184;24.848;2023-02-07T00:51:19;25.52;;;13.25;;
41946;SDS011;27638;42.184;24.848;2023-02-07T00:53:44;29.40;;;14.07;;
41946;SDS011;27638;42.184;24.848;2023-02-07T00:56:11;19.98;;;9.88;;
41946;SDS011;27638;42.184;24.848;2023-02-07T00:58:37;19.50;;;10.32;;
41946;SDS011;27638;42.184;24.848;2023-02-07T01:01:03;13.68;;;9.18;;
41946;SDS011;27638;42.184;24.848;2023-02-07T01:03:29;15.63;;;9.30;;
41946;SDS011;27638;42.184;24.848;2023-02-07T01:05:55;15.63;;;9.40;;
41946;SDS011;27638;42.184;24.848;2023-02-07T01:08:21;16.83;;;8.80;;
41946;SDS011;27638;42.184;24.848;2023-02-07T01:10:46;17.08;;;9.20;;
41946;SDS011;27638;42.184;24.848;2023-02-07T01:13:12;17.70;;;8.35;;
41946;SDS011;27638;42.184;24.848;2023-02-07T01:15:39;15.98;;;9.13;;
41946;SDS011;27638;42.184;24.848;2023-02-07T01:18:06;16.73;;;9.88;;
41946;SDS011;27638;42.184;24.848;2023-02-07T01:20:32;16.48;;;9.43;;
41946;SDS011;27638;42.184;24.848;2023-02-07T01:22:58;17.63;;;9.60;;
41946;SDS011;27638;42.184;24.848;2023-02-07T01:25:24;15.43;;;8.48;;
41946;SDS011;27638;42.184;24.848;2023-02-07T01:27:49;17.92;;;10.10;;
41946;SDS011;27638;42.184;24.848;2023-02-07T01:30:15;17.70;;;10.02;;
41946;SDS011;27638;42.184;24.848;2023-02-07T01:32:41;16.10;;;9.35;;
41946;SDS011;27638;42.184;24.848;2023-02-07T01:35:06;16.73;;;8.93;;
41946;SDS011;27638;42.184;24.848;2023-02-07T01:37:32;16.35;;;9.63;;
41946;SDS011;27638;42.184;24.848;2023-02-07T01:39:57;14.20;;;9.13;;
41946;SDS011;27638;42.184;24.848;2023-02-07T01:42:24;14.15;;;8.52;;
41946;SDS011;27638;42.184;24.848;2023-02-07T01:44:58;16.95;;;9.13;;
41946;SDS011;27638;42.184;24.848;2023-02-07T01:47:40;15.48;;;8.52;;
41946;SDS011;27638;42.184;24.848;2023-02-07T01:50:05;17.05;;;9.43;;
41946;SDS011;27638;42.184;24.848;2023-02-07T01:52:34;22.77;;;11.05;;
41946;SDS011;27638;42.184;24.848;2023-02-07T01:55:12;16.30;;;9.77;;
41946;SDS011;27638;42.184;24.848;2023-02-07T01:57:43;17.25;;;8.77;;
41946;SDS011;27638;42.184;24.848;2023-02-07T02:00:09;19.08;;;9.15;;
41946;SDS011;27638;42.184;24.848;2023-02-07T02:02:37;16.08;;;8.77;;
41946;SDS011;27638;42.184;24.848;2023-02-07T02:05:03;16.50;;;8.98;;
41946;SDS011;27638;42.184;24.848;2023-02-07T02:07:30;16.08;;;9.55;;
41946;SDS011;27638;42.184;24.848;2023-02-07T02:09:57;15.00;;;9.18;;
41946;SDS011;27638;42.184;24.848;2023-02-07T02:12:28;16.08;;;9.75;;
41946;SDS011;27638;42.184;24.848;2023-02-07T02:17:53;21.90;;;12.68;;
41946;SDS011;27638;42.184;24.848;2023-02-07T02:23:33;26.38;;;14.25;;
41946;SDS011;27638;42.184;24.848;2023-02-07T02:34:18;19.13;;;11.50;;
41946;SDS011;27638;42.184;24.848;2023-02-07T02:42:54;26.15;;;12.50;;
41946;SDS011;27638;42.184;24.848;2023-02-07T02:45:35;18.65;;;11.10;;
41946;SDS011;27638;42.184;24.848;2023-02-07T02:48:22;21.05;;;11.68;;
41946;SDS011;27638;42.184;24.848;2023-02-07T02:50:50;17.08;;;10.75;;
41946;SDS011;27638;42.184;24.848;2023-02-07T02:53:18;18.77;;;10.15;;
41946;SDS011;27638;42.184;24.848;2023-02-07T03:09:18;20.08;;;11.75;;
41946;SDS011;27638;42.184;24.848;2023-02-07T03:11:57;32.13;;;15.10;;
41946;SDS011;27638;42.184;24.848;2023-02-07T03:20:16;17.95;;;11.20;;
41946;SDS011;27638;42.184;24.848;2023-02-07T03:22:47;24.02;;;10.90;;
41946;SDS011;27638;42.184;24.848;2023-02-07T03:25:15;46.17;;;19.20;;
41946;SDS011;27638;42.184;24.848;2023-02-07T03:27:43;37.15;;;16.17;;
41946;SDS011;27638;42.184;24.848;2023-02-07T03:30:11;24.80;;;13.10;;
41946;SDS011;27638;42.184;24.848;2023-02-07T03:32:41;32.30;;;15.23;;
41946;SDS011;27638;42.184;24.848;2023-02-07T03:38:02;29.40;;;13.43;;
41946;SDS011;27638;42.184;24.848;2023-02-07T03:40:31;27.65;;;12.75;;
41946;SDS011;27638;42.184;24.848;2023-02-07T03:43:02;43.58;;;18.70;;
41946;SDS011;27638;42.184;24.848;2023-02-07T03:45:32;21.15;;;10.85;;
41946;SDS011;27638;42.184;24.848;2023-02-07T03:47:58;14.75;;;8.65;;
41946;SDS011;27638;42.184;24.848;2023-02-07T03:50:23;16.02;;;8.18;;
41946;SDS011;27638;42.184;24.848;2023-02-07T03:52:48;16.83;;;8.15;;
41946;SDS011;27638;42.184;24.848;2023-02-07T03:55:14;11.75;;;7.95;;
41946;SDS011;27638;42.184;24.848;2023-02-07T03:57:39;15.13;;;8.27;;
41946;SDS011;27638;42.184;24.848;2023-02-07T04:00:06;17.65;;;9.57;;
41946;SDS011;27638;42.184;24.848;2023-02-07T04:02:32;159.38;;;51.38;;
41946;SDS011;27638;42.184;24.848;2023-02-07T04:04:58;31.27;;;14.95;;
41946;SDS011;27638;42.184;24.848;2023-02-07T04:07:23;25.83;;;13.88;;
41946;SDS011;27638;42.184;24.848;2023-02-07T04:09:49;24.63;;;12.57;;
41946;SDS011;27638;42.184;24.848;2023-02-07T04:12:15;26.67;;;14.40;;
41946;SDS011;27638;42.184;24.848;2023-02-07T04:14:40;26.63;;;14.88;;
41946;SDS011;27638;42.184;24.848;2023-02-07T04:17:06;27.02;;;13.52;;
41946;SDS011;27638;42.184;24.848;2023-02-07T04:19:31;26.10;;;13.93;;
41946;SDS011;27638;42.184;24.848;2023-02-07T04:21:56;30.40;;;15.73;;
41946;SDS011;27638;42.184;24.848;2023-02-07T04:24:22;34.45;;;17.55;;
41946;SDS011;27638;42.184;24.848;2023-02-07T04:26:47;32.95;;;18.38;;
41946;SDS011;27638;42.184;24.848;2023-02-07T04:29:13;37.25;;;17.05;;
41946;SDS011;27638;42.184;24.848;2023-02-07T04:31:38;27.98;;;14.35;;
41946;SDS011;27638;42.184;24.848;2023-02-07T04:34:06;23.73;;;13.75;;
41946;SDS011;27638;42.184;24.848;2023-02-07T04:36:31;23.77;;;12.02;;
41946;SDS011;27638;42.184;24.848;2023-02-07T04:38:57;21.17;;;11.25;;
41946;SDS011;27638;42.184;24.848;2023-02-07T04:41:22;21.05;;;10.48;;
41946;SDS011;27638;42.184;24.848;2023-02-07T04:43:48;18.92;;;10.32;;
41946;SDS011;27638;42.184;24.848;2023-02-07T04:46:14;23.88;;;12.45;;
41946;SDS011;27638;42.184;24.848;2023-02-07T04:48:39;24.05;;;13.60;;
41946;SDS011;27638;42.184;24.848;2023-02-07T04:51:05;26.23;;;14.60;;
41946;SDS011;27638;42.184;24.848;2023-02-07T04:53:31;32.00;;;14.45;;
41946;SDS011;27638;42.184;24.848;2023-02-07T04:55:57;23.60;;;13.68;;
41946;SDS011;27638;42.184;24.848;2023-02-07T04:58:23;24.40;;;14.73;;
41946;SDS011;27638;42.184;24.848;2023-02-07T05:00:49;22.52;;;13.40;;
41946;SDS011;27638;42.184;24.848;2023-02-07T05:03:16;22.63;;;12.90;;
41946;SDS011;27638;42.184;24.848;2023-02-07T05:05:41;20.08;;;12.32;;
41946;SDS011;27638;42.184;24.848;2023-02-07T05:08:08;19.25;;;12.27;;
41946;SDS011;27638;42.184;24.848;2023-02-07T05:10:34;17.23;;;9.70;;
41946;SDS011;27638;42.184;24.848;2023-02-07T05:13:00;22.58;;;11.25;;
41946;SDS011;27638;42.184;24.848;2023-02-07T05:15:25;15.15;;;8.63;;
41946;SDS011;27638;42.184;24.848;2023-02-07T05:17:51;19.25;;;11.18;;
41946;SDS011;27638;42.184;24.848;2023-02-07T05:20:17;20.50;;;9.80;;
41946;SDS011;27638;42.184;24.848;2023-02-07T05:22:43;18.33;;;9.57;;
41946;SDS011;27638;42.184;24.848;2023-02-07T05:25:08;18.73;;;9.57;;
41946;SDS011;27638;42.184;24.848;2023-02-07T05:27:34;17.63;;;10.00;;
41946;SDS011;27638;42.184;24.848;2023-02-07T05:29:59;19.38;;;9.73;;
41946;SDS011;27638;42.184;24.848;2023-02-07T05:32:25;18.98;;;9.80;;
41946;SDS011;27638;42.184;24.848;2023-02-07T05:35:09;15.45;;;8.90;;
41946;SDS011;27638;42.184;24.848;2023-02-07T05:37:34;13.60;;;8.68;;
41946;SDS011;27638;42.184;24.848;2023-02-07T05:39:59;13.18;;;8.30;;
41946;SDS011;27638;42.184;24.848;2023-02-07T05:42:25;16.48;;;9.90;;
41946;SDS011;27638;42.184;24.848;2023-02-07T05:44:50;18.20;;;10.07;;
41946;SDS011;27638;42.184;24.848;2023-02-07T05:47:16;21.95;;;10.13;;
41946;SDS011;27638;42.184;24.848;2023-02-07T05:49:41;25.30;;;13.07;;
41946;SDS011;27638;42.184;24.848;2023-02-07T05:52:07;21.40;;;11.68;;
41946;SDS011;27638;42.184;24.848;2023-02-07T05:54:32;23.50;;;11.80;;
41946;SDS011;27638;42.184;24.848;2023-02-07T05:56:58;23.42;;;12.45;;
41946;SDS011;27638;42.184;24.848;2023-02-07T05:59:23;20.83;;;10.98;;
41946;SDS011;27638;42.184;24.848;2023-02-07T06:01:49;23.35;;;10.95;;
41946;SDS011;27638;42.184;24.848;2023-02-07T06:04:14;16.13;;;8.75;;
41946;SDS011;27638;42.184;24.848;2023-02-07T06:06:40;16.23;;;8.60;;
41946;SDS011;27638;42.184;24.848;2023-02-07T06:09:05;14.70;;;7.60;;
41946;SDS011;27638;42.184;24.848;2023-02-07T06:11:31;15.52;;;8.20;;
41946;SDS011;27638;42.184;24.848;2023-02-07T06:13:56;13.40;;;7.47;;
41946;SDS011;27638;42.184;24.848;2023-02-07T06:16:22;16.30;;;9.10;;
41946;SDS011;27638;42.184;24.848;2023-02-07T06:18:47;14.82;;;8.00;;
41946;SDS011;27638;42.184;24.848;2023-02-07T06:21:12;13.77;;;7.95;;
41946;SDS011;27638;42.184;24.848;2023-02-07T06:23:38;15.57;;;8.77;;
41946;SDS011;27638;42.184;24.848;2023-02-07T06:26:03;44.00;;;18.42;;
41946;SDS011;27638;42.184;24.848;2023-02-07T06:28:29;28.10;;;12.32;;
41946;SDS011;27638;42.184;24.848;2023-02-07T06:30:54;20.00;;;10.65;;
41946;SDS011;27638;42.184;24.848;2023-02-07T06:33:20;17.85;;;9.52;;
41946;SDS011;27638;42.184;24.848;2023-02-07T06:35:45;21.05;;;10.85;;
41946;SDS011;27638;42.184;24.848;2023-02-07T06:38:17;12.73;;;7.40;;
41946;SDS011;27638;42.184;24.848;2023-02-07T06:40:43;28.35;;;12.73;;
41946;SDS011;27638;42.184;24.848;2023-02-07T06:43:09;24.08;;;9.98;;
41946;SDS011;27638;42.184;24.848;2023-02-07T06:45:35;15.73;;;8.18;;
41946;SDS011;27638;42.184;24.848;2023-02-07T06:48:01;16.50;;;9.27;;
41946;SDS011;27638;42.184;24.848;2023-02-07T06:50:27;15.70;;;8.80;;
41946;SDS011;27638;42.184;24.848;2023-02-07T06:52:52;15.25;;;9.60;;
41946;SDS011;27638;42.184;24.848;2023-02-07T06:55:18;15.30;;;9.30;;
41946;SDS011;27638;42.184;24.848;2023-02-07T06:57:43;17.05;;;8.85;;
41946;SDS011;27638;42.184;24.848;2023-02-07T07:00:09;16.15;;;9.00;;
41946;SDS011;27638;42.184;24.848;2023-02-07T07:02:35;21.48;;;9.50;;
41946;SDS011;27638;42.184;24.848;2023-02-07T07:05:00;13.73;;;7.43;;
41946;SDS011;27638;42.184;24.848;2023-02-07T07:07:26;12.88;;;8.25;;
41946;SDS011;27638;42.184;24.848;2023-02-07T07:09:51;10.60;;;6.93;;
41946;SDS011;27638;42.184;24.848;2023-02-07T07:12:16;18.08;;;8.57;;
41946;SDS011;27638;42.184;24.848;2023-02-07T07:14:42;30.63;;;15.25;;
41946;SDS011;27638;42.184;24.848;2023-02-07T07:17:07;22.08;;;13.18;;
41946;SDS011;27638;42.184;24.848;2023-02-07T07:19:33;19.40;;;10.98;;
41946;SDS011;27638;42.184;24.848;2023-02-07T07:21:58;17.25;;;9.90;;
41946;SDS011;27638;42.184;24.848;2023-02-07T07:24:24;23.65;;;13.38;;
41946;SDS011;27638;42.184;24.848;2023-02-07T07:26:50;24.83;;;13.90;;
41946;SDS011;27638;42.184;24.848;2023-02-07T07:29:16;23.75;;;11.88;;
41946;SDS011;27638;42.184;24.848;2023-02-07T07:31:42;18.63;;;10.48;;
41946;SDS011;27638;42.184;24.848;2023-02-07T07:34:08;26.85;;;12.00;;
41946;SDS011;27638;42.184;24.848;2023-02-07T07:36:33;16.10;;;8.52;;
41946;SDS011;27638;42.184;24.848;2023-02-07T07:38:59;15.73;;;8.90;;
41946;SDS011;27638;42.184;24.848;2023-02-07T07:41:24;15.38;;;8.73;;
41946;SDS011;27638;42.184;24.848;2023-02-07T07:43:50;12.38;;;6.93;;
41946;SDS011;27638;42.184;24.848;2023-02-07T07:46:15;13.82;;;6.32;;
41946;SDS011;27638;42.184;24.848;2023-02-07T07:48:41;9.57;;;6.22;;
41946;SDS011;27638;42.184;24.848;2023-02-07T07:51:06;9.98;;;6.05;;
41946;SDS011;27638;42.184;24.848;2023-02-07T07:53:31;8.75;;;5.50;;
41946;SDS011;27638;42.184;24.848;2023-02-07T07:55:57;9.25;;;6.38;;
41946;SDS011;27638;42.184;24.848;2023-02-07T07:58:23;9.05;;;5.15;;
41946;SDS011;27638;42.184;24.848;2023-02-07T08:00:50;9.32;;;5.72;;
41946;SDS011;27638;42.184;24.848;2023-02-07T08:03:16;9.05;;;5.20;;
41946;SDS011;27638;42.184;24.848;2023-02-07T08:05:43;8.95;;;5.00;;
41946;SDS011;27638;42.184;24.848;2023-02-07T08:08:09;6.63;;;4.70;;
41946;SDS011;27638;42.184;24.848;2023-02-07T08:10:35;7.63;;;4.88;;
41946;SDS011;27638;42.184;24.848;2023-02-07T08:13:00;6.47;;;4.50;;
41946;SDS011;27638;42.184;24.848;2023-02-07T08:15:25;6.65;;;4.40;;
41946;SDS011;27638;42.184;24.848;2023-02-07T08:17:51;8.30;;;4.85;;
41946;SDS011;27638;42.184;24.848;2023-02-07T08:20:16;8.90;;;4.82;;
41946;SDS011;27638;42.184;24.848;2023-02-07T08:22:42;8.90;;;5.47;;
41946;SDS011;27638;42.184;24.848;2023-02-07T08:25:07;9.30;;;5.10;;
41946;SDS011;27638;42.184;24.848;2023-02-07T08:27:34;9.10;;;5.78;;
41946;SDS011;27638;42.184;24.848;2023-02-07T08:29:59;9.40;;;5.00;;
41946;SDS011;27638;42.184;24.848;2023-02-07T08:32:25;7.80;;;5.25;;
41946;SDS011;27638;42.184;24.848;2023-02-07T08:34:52;12.93;;;6.07;;
41946;SDS011;27638;42.184;24.848;2023-02-07T08:37:18;7.55;;;4.95;;
41946;SDS011;27638;42.184;24.848;2023-02-07T08:39:43;8.43;;;5.18;;
41946;SDS011;27638;42.184;24.848;2023-02-07T08:42:09;10.10;;;5.20;;
41946;SDS011;27638;42.184;24.848;2023-02-07T08:44:35;9.15;;;5.60;;
41946;SDS011;27638;42.184;24.848;2023-02-07T08:47:01;8.63;;;5.50;;
41946;SDS011;27638;42.184;24.848;2023-02-07T08:49:27;9.70;;;5.05;;
41946;SDS011;27638;42.184;24.848;2023-02-07T08:51:52;9.82;;;5.43;;
41946;SDS011;27638;42.184;24.848;2023-02-07T08:54:18;7.53;;;5.10;;
41946;SDS011;27638;42.184;24.848;2023-02-07T08:56:43;9.30;;;4.93;;
41946;SDS011;27638;42.184;24.848;2023-02-07T08:59:09;8.48;;;5.00;;
41946;SDS011;27638;42.184;24.848;2023-02-07T09:01:35;7.63;;;5.07;;
41946;SDS011;27638;42.184;24.848;2023-02-07T09:04:00;8.93;;;5.28;;
41946;SDS011;27638;42.184;24.848;2023-02-07T09:06:26;11.15;;;6.20;;
41946;SDS011;27638;42.184;24.848;2023-02-07T09:08:52;10.73;;;5.93;;
41946;SDS011;27638;42.184;24.848;2023-02-07T09:11:17;7.03;;;5.30;;
41946;SDS011;27638;42.184;24.848;2023-02-07T09:13:43;10.52;;;5.50;;
41946;SDS011;27638;42.184;24.848;2023-02-07T09:16:10;11.48;;;4.78;;
41946;SDS011;27638;42.184;24.848;2023-02-07T09:18:37;7.30;;;4.70;;
41946;SDS011;27638;42.184;24.848;2023-02-07T09:21:03;11.27;;;5.28;;
41946;SDS011;27638;42.184;24.848;2023-02-07T09:23:30;8.45;;;4.90;;
41946;SDS011;27638;42.184;24.848;2023-02-07T09:25:59;9.65;;;5.53;;
41946;SDS011;27638;42.184;24.848;2023-02-07T09:28:30;10.05;;;5.45;;
41946;SDS011;27638;42.184;24.848;2023-02-07T09:30:56;10.43;;;5.20;;
41946;SDS011;27638;42.184;24.848;2023-02-07T09:33:21;8.20;;;5.35;;
41946;SDS011;27638;42.184;24.848;2023-02-07T09:35:50;9.05;;;4.82;;
41946;SDS011;27638;42.184;24.848;2023-02-07T09:38:17;7.50;;;4.32;;
41946;SDS011;27638;42.184;24.848;2023-02-07T09:40:45;7.07;;;4.70;;
41946;SDS011;27638;42.184;24.848;2023-02-07T09:45:56;6.73;;;4.73;;
41946;SDS011;27638;42.184;24.848;2023-02-07T09:48:43;5.57;;;3.53;;
41946;SDS011;27638;42.184;24.848;2023-02-07T09:51:19;8.82;;;5.22;;
41946;SDS011;27638;42.184;24.848;2023-02-07T09:53:52;6.88;;;4.15;;
41946;SDS011;27638;42.184;24.848;2023-02-07T09:56:22;8.38;;;4.80;;
41946;SDS011;27638;42.184;24.848;2023-02-07T09:58:52;6.53;;;3.97;;
41946;SDS011;27638;42.184;24.848;2023-02-07T10:01:42;8.75;;;4.50;;
41946;SDS011;27638;42.184;24.848;2023-02-07T10:06:46;5.60;;;3.90;;
41946;SDS011;27638;42.184;24.848;2023-02-07T10:09:17;7.28;;;4.47;;
41946;SDS011;27638;42.184;24.848;2023-02-07T10:11:52;15.18;;;6.80;;
41946;SDS011;27638;42.184;24.848;2023-02-07T10:17:13;5.70;;;3.42;;
41946;SDS011;27638;42.184;24.848;2023-02-07T10:26:02;8.15;;;4.45;;
41946;SDS011;27638;42.184;24.848;2023-02-07T10:31:28;6.00;;;4.13;;
41946;SDS011;27638;42.184;24.848;2023-02-07T10:33:58;9.50;;;4.20;;
41946;SDS011;27638;42.184;24.848;2023-02-07T10:36:28;12.30;;;6.68;;
41946;SDS011;27638;42.184;24.848;2023-02-07T10:44:03;8.70;;;3.83;;
41946;SDS011;27638;42.184;24.848;2023-02-07T10:46:30;7.18;;;4.03;;
41946;SDS011;27638;42.184;24.848;2023-02-07T10:48:58;12.13;;;4.53;;
41946;SDS011;27638;42.184;24.848;2023-02-07T10:51:28;8.18;;;4.45;;
41946;SDS011;27638;42.184;24.848;2023-02-07T10:54:08;6.55;;;4.03;;
41946;SDS011;27638;42.184;24.848;2023-02-07T10:56:57;11.27;;;4.80;;
41946;SDS011;27638;42.184;24.848;2023-02-07T11:01:56;6.60;;;4.20;;
41946;SDS011;27638;42.184;24.848;2023-02-07T11:04:22;5.28;;;3.40;;
41946;SDS011;27638;42.184;24.848;2023-02-07T11:06:58;6.38;;;3.05;;
41946;SDS011;27638;42.184;24.848;2023-02-07T11:09:25;5.80;;;3.15;;
41946;SDS011;27638;42.184;24.848;2023-02-07T11:11:52;6.03;;;3.63;;
41946;SDS011;27638;42.184;24.848;2023-02-07T11:14:22;5.95;;;3.60;;
41946;SDS011;27638;42.184;24.848;2023-02-07T11:16:58;6.85;;;3.78;;
41946;SDS011;27638;42.184;24.848;2023-02-07T11:19:25;5.45;;;2.78;;
41946;SDS011;27638;42.184;24.848;2023-02-07T11:22:04;3.42;;;2.20;;
41946;SDS011;27638;42.184;24.848;2023-02-07T11:24:34;5.65;;;2.83;;
41946;SDS011;27638;42.184;24.848;2023-02-07T11:29:48;8.43;;;4.10;;
41946;SDS011;27638;42.184;24.848;2023-02-07T11:34:51;4.50;;;3.28;;
41946;SDS011;27638;42.184;24.848;2023-02-07T11:37:34;5.10;;;3.40;;
41946;SDS011;27638;42.184;24.848;2023-02-07T11:40:19;18.52;;;7.47;;
41946;SDS011;27638;42.184;24.848;2023-02-07T11:42:49;7.95;;;3.50;;
41946;SDS011;27638;42.184;24.848;2023-02-07T11:45:21;4.78;;;2.67;;
41946;SDS011;27638;42.184;24.848;2023-02-07T11:47:47;3.78;;;2.80;;
41946;SDS011;27638;42.184;24.848;2023-02-07T11:50:38;4.78;;;2.85;;
41946;SDS011;27638;42.184;24.848;2023-02-07T11:53:03;8.52;;;3.60;;
41946;SDS011;27638;42.184;24.848;2023-02-07T11:55:40;6.47;;;3.60;;
41946;SDS011;27638;42.184;24.848;2023-02-07T11:58:07;6.28;;;3.30;;
41946;SDS011;27638;42.184;24.848;2023-02-07T12:00:36;9.90;;;5.50;;
41946;SDS011;27638;42.184;24.848;2023-02-07T12:03:06;7.78;;;4.20;;
41946;SDS011;27638;42.184;24.848;2023-02-07T12:05:43;7.53;;;4.82;;
41946;SDS011;27638;42.184;24.848;2023-02-07T12:08:17;30.55;;;10.00;;
41946;SDS011;27638;42.184;24.848;2023-02-07T12:10:48;7.65;;;4.68;;
41946;SDS011;27638;42.184;24.848;2023-02-07T12:13:18;5.57;;;3.13;;
41946;SDS011;27638;42.184;24.848;2023-02-07T12:19:20;4.43;;;2.70;;
41946;SDS011;27638;42.184;24.848;2023-02-07T12:24:17;5.05;;;3.08;;
41946;SDS011;27638;42.184;24.848;2023-02-07T12:26:53;4.43;;;2.60;;
41946;SDS011;27638;42.184;24.848;2023-02-07T12:29:57;6.45;;;3.50;;
41946;SDS011;27638;42.184;24.848;2023-02-07T12:38:47;8.93;;;3.10;;
41946;SDS011;27638;42.184;24.848;2023-02-07T12:41:22;4.88;;;3.15;;
41946;SDS011;27638;42.184;24.848;2023-02-07T13:00:59;6.72;;;4.50;;
41946;SDS011;27638;42.184;24.848;2023-02-07T13:08:29;9.70;;;5.70;;
41946;SDS011;27638;42.184;24.848;2023-02-07T13:21:33;4.38;;;3.15;;
41946;SDS011;27638;42.184;24.848;2023-02-07T13:24:20;4.90;;;3.05;;
41946;SDS011;27638;42.184;24.848;2023-02-07T13:26:50;15.40;;;5.20;;
41946;SDS011;27638;42.184;24.848;2023-02-07T13:29:19;14.52;;;6.55;;
41946;SDS011;27638;42.184;24.848;2023-02-07T13:34:17;18.50;;;6.50;;
41946;SDS011;27638;42.184;24.848;2023-02-07T13:36:47;5.72;;;4.40;;
41946;SDS011;27638;42.184;24.848;2023-02-07T13:42:01;7.72;;;3.85;;
41946;SDS011;27638;42.184;24.848;2023-02-07T13:44:44;7.60;;;4.27;;
41946;SDS011;27638;42.184;24.848;2023-02-07T13:49:55;7.47;;;4.50;;
41946;SDS011;27638;42.184;24.848;2023-02-07T13:52:34;7.90;;;4.22;;
41946;SDS011;27638;42.184;24.848;2023-02-07T13:57:45;5.30;;;3.63;;
41946;SDS011;27638;42.184;24.848;2023-02-07T14:03:20;4.70;;;2.95;;
41946;SDS011;27638;42.184;24.848;2023-02-07T14:05:47;4.63;;;3.05;;
41946;SDS011;27638;42.184;24.848;2023-02-07T14:18:37;9.00;;;4.82;;
41946;SDS011;27638;42.184;24.848;2023-02-07T14:21:21;7.70;;;4.10;;
41946;SDS011;27638;42.184;24.848;2023-02-07T14:34:19;4.25;;;3.10;;
41946;SDS011;27638;42.184;24.848;2023-02-07T14:36:46;5.28;;;3.17;;
41946;SDS011;27638;42.184;24.848;2023-02-07T14:41:37;8.35;;;4.45;;
41946;SDS011;27638;42.184;24.848;2023-02-07T14:44:07;16.25;;;6.82;;
41946;SDS011;27638;42.184;24.848;2023-02-07T14:46:47;13.85;;;4.57;;
41946;SDS011;27638;42.184;24.848;2023-02-07T14:49:19;14.90;;;6.13;;
41946;SDS011;27638;42.184;24.848;2023-02-07T14:51:53;15.10;;;7.22;;
41946;SDS011;27638;42.184;24.848;2023-02-07T14:59:43;10.90;;;5.32;;
41946;SDS011;27638;42.184;24.848;2023-02-07T15:07:37;9.15;;;4.90;;
41946;SDS011;27638;42.184;24.848;2023-02-07T15:10:14;15.93;;;7.78;;
41946;SDS011;27638;42.184;24.848;2023-02-07T15:12:41;15.95;;;6.22;;
41946;SDS011;27638;42.184;24.848;2023-02-07T15:15:09;8.98;;;4.65;;
41946;SDS011;27638;42.184;24.848;2023-02-07T15:17:42;7.57;;;4.57;;
41946;SDS011;27638;42.184;24.848;2023-02-07T15:20:13;8.23;;;4.32;;
41946;SDS011;27638;42.184;24.848;2023-02-07T15:22:41;72.97;;;57.10;;
41946;SDS011;27638;42.184;24.848;2023-02-07T15:25:08;17.25;;;7.95;;
41946;SDS011;27638;42.184;24.848;2023-02-07T15:27:38;11.65;;;7.35;;
41946;SDS011;27638;42.184;24.848;2023-02-07T15:30:03;9.27;;;5.43;;
41946;SDS011;27638;42.184;24.848;2023-02-07T15:32:33;8.07;;;6.78;;
41946;SDS011;27638;42.184;24.848;2023-02-07T15:35:11;13.40;;;6.97;;
41946;SDS011;27638;42.184;24.848;2023-02-07T15:37:37;9.88;;;5.70;;
41946;SDS011;27638;42.184;24.848;2023-02-07T15:40:02;10.63;;;6.43;;
41946;SDS011;27638;42.184;24.848;2023-02-07T15:42:28;13.10;;;6.55;;
41946;SDS011;27638;42.184;24.848;2023-02-07T15:44:54;10.02;;;6.63;;
41946;SDS011;27638;42.184;24.848;2023-02-07T15:49:59;8.52;;;6.32;;
41946;SDS011;27638;42.184;24.848;2023-02-07T15:52:43;10.98;;;8.75;;
41946;SDS011;27638;42.184;24.848;2023-02-07T15:55:17;10.75;;;5.55;;
41946;SDS011;27638;42.184;24.848;2023-02-07T15:57:51;19.38;;;10.60;;
41946;SDS011;27638;42.184;24.848;2023-02-07T16:00:20;16.45;;;8.50;;
41946;SDS011;27638;42.184;24.848;2023-02-07T16:02:58;13.38;;;7.50;;
41946;SDS011;27638;42.184;24.848;2023-02-07T16:05:26;14.18;;;6.75;;
41946;SDS011;27638;42.184;24.848;2023-02-07T16:07:54;10.50;;;5.85;;
41946;SDS011;27638;42.184;24.848;2023-02-07T16:18:02;17.15;;;9.57;;
41946;SDS011;27638;42.184;24.848;2023-02-07T16:20:29;18.17;;;10.32;;
41946;SDS011;27638;42.184;24.848;2023-02-07T16:23:01;17.90;;;9.57;;
41946;SDS011;27638;42.184;24.848;2023-02-07T16:25:33;20.10;;;10.07;;
41946;SDS011;27638;42.184;24.848;2023-02-07T16:28:00;21.17;;;10.73;;
41946;SDS011;27638;42.184;24.848;2023-02-07T16:30:32;31.42;;;21.23;;
41946;SDS011;27638;42.184;24.848;2023-02-07T16:33:04;20.23;;;10.40;;
41946;SDS011;27638;42.184;24.848;2023-02-07T16:35:30;34.83;;;15.18;;
41946;SDS011;27638;42.184;24.848;2023-02-07T16:37:55;42.67;;;19.33;;
41946;SDS011;27638;42.184;24.848;2023-02-07T16:40:21;44.78;;;20.20;;
41946;SDS011;27638;42.184;24.848;2023-02-07T16:42:47;37.20;;;17.40;;
41946;SDS011;27638;42.184;24.848;2023-02-07T16:47:48;75.15;;;37.75;;
41946;SDS011;27638;42.184;24.848;2023-02-07T16:50:14;41.85;;;28.95;;
41946;SDS011;27638;42.184;24.848;2023-02-07T16:52:46;31.25;;;14.90;;
41946;SDS011;27638;42.184;24.848;2023-02-07T16:55:13;43.40;;;19.65;;
41946;SDS011;27638;42.184;24.848;2023-02-07T16:57:39;36.60;;;17.33;;
41946;SDS011;27638;42.184;24.848;2023-02-07T17:00:07;31.52;;;14.77;;
41946;SDS011;27638;42.184;24.848;2023-02-07T17:02:33;48.05;;;21.98;;
41946;SDS011;27638;42.184;24.848;2023-02-07T17:04:58;78.97;;;32.65;;
41946;SDS011;27638;42.184;24.848;2023-02-07T17:07:24;135.20;;;50.85;;
41946;SDS011;27638;42.184;24.848;2023-02-07T17:09:49;108.82;;;46.33;;
41946;SDS011;27638;42.184;24.848;2023-02-07T17:12:15;49.13;;;23.13;;
41946;SDS011;27638;42.184;24.848;2023-02-07T17:14:41;45.15;;;21.67;;
41946;SDS011;27638;42.184;24.848;2023-02-07T17:17:08;45.33;;;23.60;;
41946;SDS011;27638;42.184;24.848;2023-02-07T17:19:35;44.55;;;21.20;;
41946;SDS011;27638;42.184;24.848;2023-02-07T17:22:00;40.78;;;22.02;;
41946;SDS011;27638;42.184;24.848;2023-02-07T17:24:26;95.60;;;50.75;;